Fjordprinsessen — LJVE — position and weather

sailwx.info

Track history (hours):
 
Tides and Currents Weather Stations Pressure Air Temp Water Temp Dewpoint Dewpoint Depression Visibility Wind Speed Wind Dir Waves Ship Positions

Fjordprinsessen

Last reported at 2014-Sep-21 09:33 UTC. Time now 2014-Sep-21 10:10 UTC.
Position N 69°39' E 018°57'.

Length 30 m; draft 2.5 m.

Type: High speed craft. MMSI: 259604000.

Date/timePositionNaut miles runAvg speedWind from/ knotsBaromVisibWave heightAir tempDewpointWater temp
2014-Sep-21 09:33N 69°39' E 018°57'0 0.0
2014-Sep-21 08:33N 69°39' E 018°57'0 0.0
2014-Sep-21 07:33N 69°39' E 018°57'0 0.0
2014-Sep-21 06:33N 69°39' E 018°57'0 0.0
2014-Sep-21 05:33N 69°39' E 018°57'0 0.0
2014-Sep-21 04:33N 69°39' E 018°57'0 0.0
2014-Sep-21 03:33N 69°39' E 018°57'0 0.0
2014-Sep-21 02:33N 69°39' E 018°57'0 0.0
2014-Sep-21 01:33N 69°39' E 018°57'0 0.0
2014-Sep-21 00:33N 69°39' E 018°57'0 0.0
2014-Sep-20 23:33N 69°39' E 018°57'0 0.0
2014-Sep-20 22:33N 69°39' E 018°57'0 0.0
2014-Sep-20 21:33N 69°39' E 018°57'0 0.0
2014-Sep-20 20:33N 69°39' E 018°57'0 0.0
2014-Sep-20 19:33N 69°39' E 018°57'0 0.0
2014-Sep-20 18:33N 69°39' E 018°57'0 0.0
2014-Sep-20 17:33N 69°39' E 018°57'0 0.0
2014-Sep-20 16:33N 69°39' E 018°57'0 0.0
2014-Sep-20 15:33N 69°39' E 018°57'0 0.0
2014-Sep-20 14:33N 69°39' E 018°57'0 0.0
2014-Sep-20 13:33N 69°39' E 018°57'0 0.0
2014-Sep-20 12:31N 69°39' E 018°57'0 0.0
2014-Sep-20 11:28N 69°39' E 018°57'0 0.0
2014-Sep-20 10:31N 69°39' E 018°57'0 0.0
2014-Sep-20 09:31N 69°39' E 018°57'0 0.0
2014-Sep-20 08:31N 69°39' E 018°57'0 0.0
2014-Sep-20 07:31N 69°39' E 018°57'0 0.0
2014-Sep-20 06:31N 69°39' E 018°57'0 0.0
2014-Sep-20 05:31N 69°39' E 018°57'0 0.0
2014-Sep-20 04:31N 69°39' E 018°57'0 0.0
2014-Sep-20 03:31N 69°39' E 018°57'0 0.0
2014-Sep-20 02:31N 69°39' E 018°57'0 0.0
2014-Sep-20 01:31N 69°39' E 018°57'0 0.0
2014-Sep-20 00:31N 69°39' E 018°57'0 0.0
2014-Sep-19 23:31N 69°39' E 018°57'0 0.0
2014-Sep-19 22:31N 69°39' E 018°57'0 0.0
2014-Sep-19 21:31N 69°39' E 018°57'8 1.5
2014-Sep-19 16:28N 69°45' E 019°08'14 6.4
2014-Sep-19 14:16N 69°34' E 018°45'7 8.9
2014-Sep-19 13:30N 69°39' E 018°57'0 0.0
2014-Sep-19 12:33N 69°39' E 018°57'0 0.0
2014-Sep-19 11:33N 69°39' E 018°57'0 0.0
2014-Sep-19 10:33N 69°39' E 018°57'0 0.0
2014-Sep-19 09:33N 69°39' E 018°57'0 0.0
2014-Sep-19 08:33N 69°39' E 018°57'0 0.0
2014-Sep-19 07:33N 69°39' E 018°57'7 3.2
2014-Sep-19 05:26N 69°34' E 018°45'7 7.5
2014-Sep-19 04:32N 69°39' E 018°57'0 0.0
2014-Sep-19 03:32N 69°39' E 018°57'0 0.0
2014-Sep-19 02:32N 69°39' E 018°57'0 0.0
2014-Sep-19 01:32N 69°39' E 018°57'0 0.0
2014-Sep-19 00:32N 69°39' E 018°57'0 0.0
2014-Sep-18 23:32N 69°39' E 018°57'0 0.0
2014-Sep-18 22:29N 69°39' E 018°57'0 0.0
2014-Sep-18 21:23N 69°39' E 018°57'0 0.0
2014-Sep-18 20:32N 69°39' E 018°57'0 0.0
2014-Sep-18 19:32N 69°39' E 018°57'0 0.0
2014-Sep-18 18:29N 69°39' E 018°57'6 1.5
2014-Sep-18 14:15N 69°44' E 019°06'6 7.8
2014-Sep-18 13:26N 69°39' E 018°57'0 0.0
2014-Sep-18 12:32N 69°39' E 018°57'0 0.0
2014-Sep-18 11:32N 69°39' E 018°57'0 0.0
2014-Sep-18 10:32N 69°39' E 018°57'0 0.0
2014-Sep-18 09:32N 69°39' E 018°57'0 0.0
2014-Sep-18 08:29N 69°39' E 018°57'5 0.4
2014-Sep-17 17:33N 69°43' E 019°04'5 5.3
2014-Sep-17 16:33N 69°39' E 018°57'7 2.9
2014-Sep-17 14:16N 69°34' E 018°45'7 7.9
2014-Sep-17 13:25N 69°39' E 018°57'0 0.0
2014-Sep-17 12:28N 69°39' E 018°57'0 0.0
2014-Sep-17 11:28N 69°39' E 018°57'0 0.0
2014-Sep-17 10:25N 69°39' E 018°57'0 0.0
2014-Sep-17 09:31N 69°39' E 018°57'0 0.0
2014-Sep-17 08:33N 69°39' E 018°57'0 0.0
2014-Sep-17 07:27N 69°39' E 018°57'7 3.2
2014-Sep-17 05:24N 69°34' E 018°45'7 7.5
2014-Sep-17 04:31N 69°39' E 018°57'0 0.0
2014-Sep-17 03:31N 69°39' E 018°57'0 0.0
2014-Sep-17 02:31N 69°39' E 018°57'0 0.0
2014-Sep-17 01:28N 69°39' E 018°57'0 0.0
2014-Sep-17 00:31N 69°39' E 018°57'0 0.0
2014-Sep-16 23:31N 69°39' E 018°57'0 0.0
2014-Sep-16 22:31N 69°39' E 018°57'0 0.0
2014-Sep-16 21:31N 69°39' E 018°57'0 0.0
2014-Sep-16 20:31N 69°39' E 018°57'0 0.0
2014-Sep-16 19:31N 69°39' E 018°57'0 0.0
2014-Sep-16 18:31N 69°39' E 018°57'7 1.6
2014-Sep-16 14:18N 69°45' E 019°06'7 8.9
2014-Sep-16 13:32N 69°39' E 018°57'0 0.0
2014-Sep-16 12:32N 69°39' E 018°57'0 0.0
2014-Sep-16 11:32N 69°39' E 018°57'0 0.0
2014-Sep-16 10:32N 69°39' E 018°57'0 0.0
2014-Sep-16 09:32N 69°39' E 018°57'0 0.0
2014-Sep-16 08:32N 69°39' E 018°57'5 0.3
2014-Sep-15 17:33N 69°43' E 019°04'5 4.8
2014-Sep-15 16:32N 69°39' E 018°57'3 1.5
2014-Sep-15 14:10N 69°36' E 018°52'3 5.5
2014-Sep-15 13:32N 69°39' E 018°57'0 0.0
2014-Sep-15 12:29N 69°39' E 018°57'0 0.0
2014-Sep-15 11:32N 69°39' E 018°57'0 0.0
2014-Sep-15 10:33N 69°39' E 018°57'0 0.0
2014-Sep-15 09:33N 69°39' E 018°57'0 0.0
2014-Sep-15 08:33N 69°39' E 018°57'0 0.0
2014-Sep-15 07:33N 69°39' E 018°57'7 3.2
2014-Sep-15 05:26N 69°34' E 018°45'7 7.7
2014-Sep-15 04:33N 69°39' E 018°57'0 0.0
2014-Sep-15 03:27N 69°39' E 018°57'0 0.0
2014-Sep-15 02:27N 69°39' E 018°57'0 0.0
2014-Sep-15 01:33N 69°39' E 018°57'0 0.0
2014-Sep-15 00:33N 69°39' E 018°57'0 0.0
2014-Sep-14 23:33N 69°39' E 018°57'0 0.0
2014-Sep-14 22:27N 69°39' E 018°57'0 0.0
2014-Sep-14 21:27N 69°39' E 018°57'0 0.0
2014-Sep-14 20:33N 69°39' E 018°57'6 2.9
2014-Sep-14 18:33N 69°34' E 018°47'6 1.0
2014-Sep-14 12:32N 69°39' E 018°57'0 0.0
2014-Sep-14 11:32N 69°39' E 018°57'0 0.0
2014-Sep-14 10:32N 69°39' E 018°57'0 0.0
2014-Sep-14 09:32N 69°39' E 018°57'0 0.0
2014-Sep-14 08:32N 69°39' E 018°57'0 0.0
2014-Sep-14 07:32N 69°39' E 018°57'0 0.0
2014-Sep-14 06:29N 69°39' E 018°57'0 0.0
2014-Sep-14 05:32N 69°39' E 018°57'0 0.0
2014-Sep-14 04:32N 69°39' E 018°57'0 0.0
2014-Sep-14 03:29N 69°39' E 018°57'0 0.0
2014-Sep-14 02:26N 69°39' E 018°57'0 0.0
2014-Sep-14 01:31N 69°39' E 018°57'0 0.0
2014-Sep-13 21:31N 69°39' E 018°57'0 0.0
2014-Sep-13 20:31N 69°39' E 018°57'0 0.0
2014-Sep-13 19:31N 69°39' E 018°57'0 0.0
2014-Sep-13 18:31N 69°39' E 018°57'0 0.0
2014-Sep-13 17:31N 69°39' E 018°57'0 0.0
2014-Sep-13 16:25N 69°39' E 018°57'  
Track history (hours):
 
Tides and Currents Weather Stations Pressure Air Temp Water Temp Dewpoint Dewpoint Depression Visibility Wind Speed Wind Dir Waves Ship Positions

Fjordprinsessen

Last reported at 2014-Sep-21 09:33 UTC. Time now 2014-Sep-21 10:10 UTC.
Position N 69°39' E 018°57'.

Length 30 m; draft 2.5 m.

Type: High speed craft. MMSI: 259604000.

Date/timePositionNaut miles runAvg speedWind from/ knotsBaromVisibWave heightAir tempDewpointWater temp
2014-Sep-21 09:33N 69°39' E 018°57'0 0.0
2014-Sep-21 08:33N 69°39' E 018°57'0 0.0
2014-Sep-21 07:33N 69°39' E 018°57'0 0.0
2014-Sep-21 06:33N 69°39' E 018°57'0 0.0
2014-Sep-21 05:33N 69°39' E 018°57'0 0.0
2014-Sep-21 04:33N 69°39' E 018°57'0 0.0
2014-Sep-21 03:33N 69°39' E 018°57'0 0.0
2014-Sep-21 02:33N 69°39' E 018°57'0 0.0
2014-Sep-21 01:33N 69°39' E 018°57'0 0.0
2014-Sep-21 00:33N 69°39' E 018°57'0 0.0
2014-Sep-20 23:33N 69°39' E 018°57'0 0.0
2014-Sep-20 22:33N 69°39' E 018°57'0 0.0
2014-Sep-20 21:33N 69°39' E 018°57'0 0.0
2014-Sep-20 20:33N 69°39' E 018°57'0 0.0
2014-Sep-20 19:33N 69°39' E 018°57'0 0.0
2014-Sep-20 18:33N 69°39' E 018°57'0 0.0
2014-Sep-20 17:33N 69°39' E 018°57'0 0.0
2014-Sep-20 16:33N 69°39' E 018°57'0 0.0
2014-Sep-20 15:33N 69°39' E 018°57'0 0.0
2014-Sep-20 14:33N 69°39' E 018°57'0 0.0
2014-Sep-20 13:33N 69°39' E 018°57'0 0.0
2014-Sep-20 12:31N 69°39' E 018°57'0 0.0
2014-Sep-20 11:28N 69°39' E 018°57'0 0.0
2014-Sep-20 10:31N 69°39' E 018°57'0 0.0
2014-Sep-20 09:31N 69°39' E 018°57'0 0.0
2014-Sep-20 08:31N 69°39' E 018°57'0 0.0
2014-Sep-20 07:31N 69°39' E 018°57'0 0.0
2014-Sep-20 06:31N 69°39' E 018°57'0 0.0
2014-Sep-20 05:31N 69°39' E 018°57'0 0.0
2014-Sep-20 04:31N 69°39' E 018°57'0 0.0
2014-Sep-20 03:31N 69°39' E 018°57'0 0.0
2014-Sep-20 02:31N 69°39' E 018°57'0 0.0
2014-Sep-20 01:31N 69°39' E 018°57'0 0.0
2014-Sep-20 00:31N 69°39' E 018°57'0 0.0
2014-Sep-19 23:31N 69°39' E 018°57'0 0.0
2014-Sep-19 22:31N 69°39' E 018°57'0 0.0
2014-Sep-19 21:31N 69°39' E 018°57'8 1.5
2014-Sep-19 16:28N 69°45' E 019°08'14 6.4
2014-Sep-19 14:16N 69°34' E 018°45'7 8.9
2014-Sep-19 13:30N 69°39' E 018°57'0 0.0
2014-Sep-19 12:33N 69°39' E 018°57'0 0.0
2014-Sep-19 11:33N 69°39' E 018°57'0 0.0
2014-Sep-19 10:33N 69°39' E 018°57'0 0.0
2014-Sep-19 09:33N 69°39' E 018°57'0 0.0
2014-Sep-19 08:33N 69°39' E 018°57'0 0.0
2014-Sep-19 07:33N 69°39' E 018°57'7 3.2
2014-Sep-19 05:26N 69°34' E 018°45'7 7.5
2014-Sep-19 04:32N 69°39' E 018°57'0 0.0
2014-Sep-19 03:32N 69°39' E 018°57'0 0.0
2014-Sep-19 02:32N 69°39' E 018°57'0 0.0
2014-Sep-19 01:32N 69°39' E 018°57'0 0.0
2014-Sep-19 00:32N 69°39' E 018°57'0 0.0
2014-Sep-18 23:32N 69°39' E 018°57'0 0.0
2014-Sep-18 22:29N 69°39' E 018°57'0 0.0
2014-Sep-18 21:23N 69°39' E 018°57'0 0.0
2014-Sep-18 20:32N 69°39' E 018°57'0 0.0
2014-Sep-18 19:32N 69°39' E 018°57'0 0.0
2014-Sep-18 18:29N 69°39' E 018°57'6 1.5
2014-Sep-18 14:15N 69°44' E 019°06'6 7.8
2014-Sep-18 13:26N 69°39' E 018°57'0 0.0
2014-Sep-18 12:32N 69°39' E 018°57'0 0.0
2014-Sep-18 11:32N 69°39' E 018°57'0 0.0
2014-Sep-18 10:32N 69°39' E 018°57'0 0.0
2014-Sep-18 09:32N 69°39' E 018°57'0 0.0
2014-Sep-18 08:29N 69°39' E 018°57'5 0.4
2014-Sep-17 17:33N 69°43' E 019°04'5 5.3
2014-Sep-17 16:33N 69°39' E 018°57'7 2.9
2014-Sep-17 14:16N 69°34' E 018°45'7 7.9
2014-Sep-17 13:25N 69°39' E 018°57'0 0.0
2014-Sep-17 12:28N 69°39' E 018°57'0 0.0
2014-Sep-17 11:28N 69°39' E 018°57'0 0.0
2014-Sep-17 10:25N 69°39' E 018°57'0 0.0
2014-Sep-17 09:31N 69°39' E 018°57'0 0.0
2014-Sep-17 08:33N 69°39' E 018°57'0 0.0
2014-Sep-17 07:27N 69°39' E 018°57'7 3.2
2014-Sep-17 05:24N 69°34' E 018°45'7 7.5
2014-Sep-17 04:31N 69°39' E 018°57'0 0.0
2014-Sep-17 03:31N 69°39' E 018°57'0 0.0
2014-Sep-17 02:31N 69°39' E 018°57'0 0.0
2014-Sep-17 01:28N 69°39' E 018°57'0 0.0
2014-Sep-17 00:31N 69°39' E 018°57'0 0.0
2014-Sep-16 23:31N 69°39' E 018°57'0 0.0
2014-Sep-16 22:31N 69°39' E 018°57'0 0.0
2014-Sep-16 21:31N 69°39' E 018°57'0 0.0
2014-Sep-16 20:31N 69°39' E 018°57'0 0.0
2014-Sep-16 19:31N 69°39' E 018°57'0 0.0
2014-Sep-16 18:31N 69°39' E 018°57'7 1.6
2014-Sep-16 14:18N 69°45' E 019°06'7 8.9
2014-Sep-16 13:32N 69°39' E 018°57'0 0.0
2014-Sep-16 12:32N 69°39' E 018°57'0 0.0
2014-Sep-16 11:32N 69°39' E 018°57'0 0.0
2014-Sep-16 10:32N 69°39' E 018°57'0 0.0
2014-Sep-16 09:32N 69°39' E 018°57'0 0.0
2014-Sep-16 08:32N 69°39' E 018°57'5 0.3
2014-Sep-15 17:33N 69°43' E 019°04'5 4.8
2014-Sep-15 16:32N 69°39' E 018°57'3 1.5
2014-Sep-15 14:10N 69°36' E 018°52'3 5.5
2014-Sep-15 13:32N 69°39' E 018°57'0 0.0
2014-Sep-15 12:29N 69°39' E 018°57'0 0.0
2014-Sep-15 11:32N 69°39' E 018°57'0 0.0
2014-Sep-15 10:33N 69°39' E 018°57'0 0.0
2014-Sep-15 09:33N 69°39' E 018°57'0 0.0
2014-Sep-15 08:33N 69°39' E 018°57'0 0.0
2014-Sep-15 07:33N 69°39' E 018°57'7 3.2
2014-Sep-15 05:26N 69°34' E 018°45'7 7.7
2014-Sep-15 04:33N 69°39' E 018°57'0 0.0
2014-Sep-15 03:27N 69°39' E 018°57'0 0.0
2014-Sep-15 02:27N 69°39' E 018°57'0 0.0
2014-Sep-15 01:33N 69°39' E 018°57'0 0.0
2014-Sep-15 00:33N 69°39' E 018°57'0 0.0
2014-Sep-14 23:33N 69°39' E 018°57'0 0.0
2014-Sep-14 22:27N 69°39' E 018°57'0 0.0
2014-Sep-14 21:27N 69°39' E 018°57'0 0.0
2014-Sep-14 20:33N 69°39' E 018°57'6 2.9
2014-Sep-14 18:33N 69°34' E 018°47'6 1.0
2014-Sep-14 12:32N 69°39' E 018°57'0 0.0
2014-Sep-14 11:32N 69°39' E 018°57'0 0.0
2014-Sep-14 10:32N 69°39' E 018°57'0 0.0
2014-Sep-14 09:32N 69°39' E 018°57'0 0.0
2014-Sep-14 08:32N 69°39' E 018°57'0 0.0
2014-Sep-14 07:32N 69°39' E 018°57'0 0.0
2014-Sep-14 06:29N 69°39' E 018°57'0 0.0
2014-Sep-14 05:32N 69°39' E 018°57'0 0.0
2014-Sep-14 04:32N 69°39' E 018°57'0 0.0
2014-Sep-14 03:29N 69°39' E 018°57'0 0.0
2014-Sep-14 02:26N 69°39' E 018°57'0 0.0
2014-Sep-14 01:31N 69°39' E 018°57'0 0.0
2014-Sep-13 21:31N 69°39' E 018°57'0 0.0
2014-Sep-13 20:31N 69°39' E 018°57'0 0.0
2014-Sep-13 19:31N 69°39' E 018°57'0 0.0
2014-Sep-13 18:31N 69°39' E 018°57'0 0.0
2014-Sep-13 17:31N 69°39' E 018°57'0 0.0
2014-Sep-13 16:25N 69°39' E 018°57'  

Dump ship's entire track history